sensor_id;sensor_type;location;lat;lon;timestamp;P1;durP1;ratioP1;P2;durP2;ratioP2
14021;SDS011;7086;48.116;11.580;2023-08-30T00:01:36;5.40;;;4.97;;
14021;SDS011;7086;48.116;11.580;2023-08-30T00:04:03;5.05;;;4.65;;
14021;SDS011;7086;48.116;11.580;2023-08-30T00:06:30;5.68;;;5.28;;
14021;SDS011;7086;48.116;11.580;2023-08-30T00:08:57;6.00;;;5.57;;
14021;SDS011;7086;48.116;11.580;2023-08-30T00:11:23;5.20;;;4.80;;
14021;SDS011;7086;48.116;11.580;2023-08-30T00:13:52;5.55;;;5.15;;
14021;SDS011;7086;48.116;11.580;2023-08-30T00:16:18;5.20;;;4.88;;
14021;SDS011;7086;48.116;11.580;2023-08-30T00:18:45;5.47;;;4.97;;
14021;SDS011;7086;48.116;11.580;2023-08-30T00:21:12;5.70;;;5.30;;
14021;SDS011;7086;48.116;11.580;2023-08-30T00:23:38;4.97;;;4.65;;
14021;SDS011;7086;48.116;11.580;2023-08-30T00:26:05;5.25;;;4.95;;
14021;SDS011;7086;48.116;11.580;2023-08-30T00:28:32;5.60;;;5.13;;
14021;SDS011;7086;48.116;11.580;2023-08-30T00:31:00;5.47;;;5.07;;
14021;SDS011;7086;48.116;11.580;2023-08-30T00:33:27;5.30;;;4.90;;
14021;SDS011;7086;48.116;11.580;2023-08-30T00:35:57;5.18;;;4.78;;
14021;SDS011;7086;48.116;11.580;2023-08-30T00:38:25;5.63;;;5.22;;
14021;SDS011;7086;48.116;11.580;2023-08-30T00:40:53;5.32;;;4.93;;
14021;SDS011;7086;48.116;11.580;2023-08-30T00:43:20;4.93;;;4.55;;
14021;SDS011;7086;48.116;11.580;2023-08-30T00:45:47;5.30;;;4.93;;
14021;SDS011;7086;48.116;11.580;2023-08-30T00:48:16;5.80;;;5.30;;
14021;SDS011;7086;48.116;11.580;2023-08-30T00:50:45;4.72;;;4.43;;
14021;SDS011;7086;48.116;11.580;2023-08-30T00:53:12;4.70;;;4.35;;
14021;SDS011;7086;48.116;11.580;2023-08-30T00:55:42;5.28;;;4.97;;
14021;SDS011;7086;48.116;11.580;2023-08-30T00:58:09;5.95;;;5.55;;
14021;SDS011;7086;48.116;11.580;2023-08-30T01:00:36;4.03;;;3.83;;
14021;SDS011;7086;48.116;11.580;2023-08-30T01:03:04;4.97;;;4.68;;
14021;SDS011;7086;48.116;11.580;2023-08-30T01:05:35;4.50;;;4.20;;
14021;SDS011;7086;48.116;11.580;2023-08-30T01:08:01;4.65;;;4.25;;
14021;SDS011;7086;48.116;11.580;2023-08-30T01:10:31;4.68;;;4.38;;
14021;SDS011;7086;48.116;11.580;2023-08-30T01:13:07;5.03;;;4.55;;
14021;SDS011;7086;48.116;11.580;2023-08-30T01:15:36;4.70;;;4.30;;
14021;SDS011;7086;48.116;11.580;2023-08-30T01:18:04;4.70;;;4.25;;
14021;SDS011;7086;48.116;11.580;2023-08-30T01:20:35;4.80;;;4.50;;
14021;SDS011;7086;48.116;11.580;2023-08-30T01:23:05;4.10;;;3.90;;
14021;SDS011;7086;48.116;11.580;2023-08-30T01:25:37;5.05;;;4.70;;
14021;SDS011;7086;48.116;11.580;2023-08-30T01:28:13;4.60;;;4.20;;
14021;SDS011;7086;48.116;11.580;2023-08-30T01:30:42;4.32;;;3.95;;
14021;SDS011;7086;48.116;11.580;2023-08-30T01:33:11;4.32;;;4.03;;
14021;SDS011;7086;48.116;11.580;2023-08-30T01:35:39;3.85;;;3.65;;
14021;SDS011;7086;48.116;11.580;2023-08-30T01:38:07;4.45;;;4.15;;
14021;SDS011;7086;48.116;11.580;2023-08-30T01:40:35;4.07;;;3.88;;
14021;SDS011;7086;48.116;11.580;2023-08-30T01:43:05;4.90;;;4.60;;
14021;SDS011;7086;48.116;11.580;2023-08-30T01:45:34;5.38;;;3.97;;
14021;SDS011;7086;48.116;11.580;2023-08-30T01:48:03;4.00;;;3.80;;
14021;SDS011;7086;48.116;11.580;2023-08-30T01:50:30;4.05;;;3.85;;
14021;SDS011;7086;48.116;11.580;2023-08-30T01:52:58;4.22;;;3.95;;
14021;SDS011;7086;48.116;11.580;2023-08-30T01:55:26;4.40;;;4.15;;
14021;SDS011;7086;48.116;11.580;2023-08-30T01:57:55;4.30;;;4.00;;
14021;SDS011;7086;48.116;11.580;2023-08-30T02:00:22;4.53;;;4.30;;
14021;SDS011;7086;48.116;11.580;2023-08-30T02:02:50;4.55;;;4.18;;
14021;SDS011;7086;48.116;11.580;2023-08-30T02:05:17;4.82;;;4.53;;
14021;SDS011;7086;48.116;11.580;2023-08-30T02:07:47;5.15;;;4.75;;
14021;SDS011;7086;48.116;11.580;2023-08-30T02:10:20;4.30;;;4.10;;
14021;SDS011;7086;48.116;11.580;2023-08-30T02:12:49;6.15;;;5.55;;
14021;SDS011;7086;48.116;11.580;2023-08-30T02:15:19;4.57;;;4.18;;
14021;SDS011;7086;48.116;11.580;2023-08-30T02:17:47;4.15;;;3.95;;
14021;SDS011;7086;48.116;11.580;2023-08-30T02:20:15;5.47;;;4.07;;
14021;SDS011;7086;48.116;11.580;2023-08-30T02:22:43;4.53;;;4.03;;
14021;SDS011;7086;48.116;11.580;2023-08-30T02:25:09;3.92;;;3.40;;
14021;SDS011;7086;48.116;11.580;2023-08-30T02:27:36;3.25;;;3.05;;
14021;SDS011;7086;48.116;11.580;2023-08-30T02:30:03;4.22;;;3.92;;
14021;SDS011;7086;48.116;11.580;2023-08-30T02:32:31;3.40;;;3.30;;
14021;SDS011;7086;48.116;11.580;2023-08-30T02:34:58;4.20;;;3.90;;
14021;SDS011;7086;48.116;11.580;2023-08-30T02:37:26;4.30;;;4.00;;
14021;SDS011;7086;48.116;11.580;2023-08-30T02:39:53;3.90;;;3.53;;
14021;SDS011;7086;48.116;11.580;2023-08-30T02:42:19;3.95;;;3.75;;
14021;SDS011;7086;48.116;11.580;2023-08-30T02:44:46;3.72;;;3.53;;
14021;SDS011;7086;48.116;11.580;2023-08-30T02:47:13;3.63;;;3.42;;
14021;SDS011;7086;48.116;11.580;2023-08-30T02:49:40;3.80;;;3.50;;
14021;SDS011;7086;48.116;11.580;2023-08-30T02:52:07;3.42;;;3.22;;
14021;SDS011;7086;48.116;11.580;2023-08-30T02:54:37;4.10;;;3.17;;
14021;SDS011;7086;48.116;11.580;2023-08-30T02:57:04;3.35;;;3.15;;
14021;SDS011;7086;48.116;11.580;2023-08-30T02:59:31;2.58;;;2.47;;
14021;SDS011;7086;48.116;11.580;2023-08-30T03:01:57;2.97;;;2.88;;
14021;SDS011;7086;48.116;11.580;2023-08-30T03:04:24;3.83;;;3.60;;
14021;SDS011;7086;48.116;11.580;2023-08-30T03:06:51;3.00;;;2.90;;
14021;SDS011;7086;48.116;11.580;2023-08-30T03:09:18;4.00;;;3.80;;
14021;SDS011;7086;48.116;11.580;2023-08-30T03:11:46;3.33;;;2.72;;
14021;SDS011;7086;48.116;11.580;2023-08-30T03:14:13;3.35;;;3.15;;
14021;SDS011;7086;48.116;11.580;2023-08-30T03:16:41;3.10;;;3.00;;
14021;SDS011;7086;48.116;11.580;2023-08-30T03:19:10;2.95;;;2.85;;
14021;SDS011;7086;48.116;11.580;2023-08-30T03:21:37;3.28;;;3.08;;
14021;SDS011;7086;48.116;11.580;2023-08-30T03:24:04;3.30;;;3.10;;
14021;SDS011;7086;48.116;11.580;2023-08-30T03:26:31;3.10;;;2.90;;
14021;SDS011;7086;48.116;11.580;2023-08-30T03:28:59;3.72;;;2.80;;
14021;SDS011;7086;48.116;11.580;2023-08-30T03:31:26;3.20;;;3.00;;
14021;SDS011;7086;48.116;11.580;2023-08-30T03:33:52;2.80;;;2.70;;
14021;SDS011;7086;48.116;11.580;2023-08-30T03:36:19;2.53;;;2.42;;
14021;SDS011;7086;48.116;11.580;2023-08-30T03:38:46;2.85;;;2.75;;
14021;SDS011;7086;48.116;11.580;2023-08-30T03:41:13;3.40;;;3.20;;
14021;SDS011;7086;48.116;11.580;2023-08-30T03:43:40;3.85;;;2.97;;
14021;SDS011;7086;48.116;11.580;2023-08-30T03:46:08;3.22;;;3.03;;
14021;SDS011;7086;48.116;11.580;2023-08-30T03:48:36;3.38;;;3.13;;
14021;SDS011;7086;48.116;11.580;2023-08-30T03:51:03;2.70;;;2.60;;
14021;SDS011;7086;48.116;11.580;2023-08-30T03:53:30;2.78;;;2.58;;
14021;SDS011;7086;48.116;11.580;2023-08-30T03:55:57;3.17;;;2.90;;
14021;SDS011;7086;48.116;11.580;2023-08-30T03:58:24;2.42;;;2.33;;
14021;SDS011;7086;48.116;11.580;2023-08-30T04:00:51;2.38;;;2.28;;
14021;SDS011;7086;48.116;11.580;2023-08-30T04:03:19;3.28;;;2.97;;
14021;SDS011;7086;48.116;11.580;2023-08-30T04:05:46;3.45;;;3.15;;
14021;SDS011;7086;48.116;11.580;2023-08-30T04:08:13;3.20;;;3.00;;
14021;SDS011;7086;48.116;11.580;2023-08-30T04:10:41;3.10;;;2.90;;
14021;SDS011;7086;48.116;11.580;2023-08-30T04:13:08;2.70;;;2.60;;
14021;SDS011;7086;48.116;11.580;2023-08-30T04:15:36;3.00;;;2.80;;
14021;SDS011;7086;48.116;11.580;2023-08-30T04:18:03;3.30;;;2.55;;
14021;SDS011;7086;48.116;11.580;2023-08-30T04:20:33;2.60;;;2.47;;
14021;SDS011;7086;48.116;11.580;2023-08-30T04:23:01;2.55;;;2.45;;
14021;SDS011;7086;48.116;11.580;2023-08-30T04:25:28;3.03;;;2.83;;
14021;SDS011;7086;48.116;11.580;2023-08-30T04:27:56;2.63;;;2.53;;
14021;SDS011;7086;48.116;11.580;2023-08-30T04:30:23;2.42;;;2.33;;
14021;SDS011;7086;48.116;11.580;2023-08-30T04:32:50;2.60;;;2.50;;
14021;SDS011;7086;48.116;11.580;2023-08-30T04:35:16;6.20;;;3.05;;
14021;SDS011;7086;48.116;11.580;2023-08-30T04:37:45;3.75;;;2.90;;
14021;SDS011;7086;48.116;11.580;2023-08-30T04:40:12;3.00;;;2.80;;
14021;SDS011;7086;48.116;11.580;2023-08-30T04:42:38;2.88;;;2.67;;
14021;SDS011;7086;48.116;11.580;2023-08-30T04:45:06;26.58;;;7.47;;
14021;SDS011;7086;48.116;11.580;2023-08-30T04:47:34;12.50;;;5.05;;
14021;SDS011;7086;48.116;11.580;2023-08-30T04:50:01;6.07;;;3.55;;
14021;SDS011;7086;48.116;11.580;2023-08-30T04:52:29;5.60;;;4.45;;
14021;SDS011;7086;48.116;11.580;2023-08-30T04:54:57;3.72;;;3.42;;
14021;SDS011;7086;48.116;11.580;2023-08-30T04:57:24;7.45;;;2.95;;
14021;SDS011;7086;48.116;11.580;2023-08-30T04:59:51;22.48;;;6.32;;
14021;SDS011;7086;48.116;11.580;2023-08-30T05:02:18;9.20;;;3.45;;
14021;SDS011;7086;48.116;11.580;2023-08-30T05:04:45;4.82;;;3.55;;
14021;SDS011;7086;48.116;11.580;2023-08-30T05:07:11;4.68;;;2.47;;
14021;SDS011;7086;48.116;11.580;2023-08-30T05:09:38;3.50;;;3.20;;
14021;SDS011;7086;48.116;11.580;2023-08-30T05:12:07;2.97;;;2.80;;
14021;SDS011;7086;48.116;11.580;2023-08-30T05:14:34;2.72;;;2.53;;
14021;SDS011;7086;48.116;11.580;2023-08-30T05:17:01;2.92;;;2.47;;
14021;SDS011;7086;48.116;11.580;2023-08-30T05:19:28;2.95;;;2.75;;
14021;SDS011;7086;48.116;11.580;2023-08-30T05:21:55;3.28;;;3.08;;
14021;SDS011;7086;48.116;11.580;2023-08-30T05:24:22;4.72;;;3.10;;
14021;SDS011;7086;48.116;11.580;2023-08-30T05:26:48;2.65;;;2.55;;
14021;SDS011;7086;48.116;11.580;2023-08-30T05:29:18;3.33;;;3.05;;
14021;SDS011;7086;48.116;11.580;2023-08-30T05:31:44;3.00;;;2.80;;
14021;SDS011;7086;48.116;11.580;2023-08-30T05:34:11;3.40;;;3.20;;
14021;SDS011;7086;48.116;11.580;2023-08-30T05:36:38;3.30;;;3.13;;
14021;SDS011;7086;48.116;11.580;2023-08-30T05:39:05;4.28;;;2.90;;
14021;SDS011;7086;48.116;11.580;2023-08-30T05:41:32;4.18;;;2.78;;
14021;SDS011;7086;48.116;11.580;2023-08-30T05:43:59;4.80;;;3.20;;
14021;SDS011;7086;48.116;11.580;2023-08-30T05:46:27;3.05;;;2.85;;
14021;SDS011;7086;48.116;11.580;2023-08-30T05:48:54;2.75;;;2.55;;
14021;SDS011;7086;48.116;11.580;2023-08-30T05:51:21;3.22;;;3.10;;
14021;SDS011;7086;48.116;11.580;2023-08-30T05:53:48;4.63;;;3.35;;
14021;SDS011;7086;48.116;11.580;2023-08-30T05:56:14;3.65;;;3.25;;
14021;SDS011;7086;48.116;11.580;2023-08-30T05:58:42;3.47;;;3.17;;
14021;SDS011;7086;48.116;11.580;2023-08-30T06:01:09;2.85;;;2.75;;
14021;SDS011;7086;48.116;11.580;2023-08-30T06:03:37;3.78;;;3.53;;
14021;SDS011;7086;48.116;11.580;2023-08-30T06:06:04;4.18;;;2.97;;
14021;SDS011;7086;48.116;11.580;2023-08-30T06:08:31;3.10;;;2.95;;
14021;SDS011;7086;48.116;11.580;2023-08-30T06:10:58;3.30;;;3.10;;
14021;SDS011;7086;48.116;11.580;2023-08-30T06:13:24;4.05;;;3.25;;
14021;SDS011;7086;48.116;11.580;2023-08-30T06:15:51;3.10;;;2.95;;
14021;SDS011;7086;48.116;11.580;2023-08-30T06:18:18;2.58;;;2.47;;
14021;SDS011;7086;48.116;11.580;2023-08-30T06:20:47;3.05;;;2.85;;
14021;SDS011;7086;48.116;11.580;2023-08-30T06:23:13;2.83;;;2.72;;
14021;SDS011;7086;48.116;11.580;2023-08-30T06:25:41;2.65;;;2.55;;
14021;SDS011;7086;48.116;11.580;2023-08-30T06:28:08;2.38;;;2.28;;
14021;SDS011;7086;48.116;11.580;2023-08-30T06:30:35;3.17;;;2.97;;
14021;SDS011;7086;48.116;11.580;2023-08-30T06:33:01;2.78;;;2.55;;
14021;SDS011;7086;48.116;11.580;2023-08-30T06:35:28;3.03;;;2.83;;
14021;SDS011;7086;48.116;11.580;2023-08-30T06:37:56;3.10;;;2.90;;
14021;SDS011;7086;48.116;11.580;2023-08-30T06:40:24;3.05;;;2.85;;
14021;SDS011;7086;48.116;11.580;2023-08-30T06:42:51;2.80;;;2.70;;
14021;SDS011;7086;48.116;11.580;2023-08-30T06:45:18;2.50;;;2.40;;
14021;SDS011;7086;48.116;11.580;2023-08-30T06:47:45;3.00;;;2.90;;
14021;SDS011;7086;48.116;11.580;2023-08-30T06:50:14;2.97;;;2.78;;
14021;SDS011;7086;48.116;11.580;2023-08-30T06:52:41;3.10;;;2.90;;
14021;SDS011;7086;48.116;11.580;2023-08-30T06:55:09;2.72;;;2.53;;
14021;SDS011;7086;48.116;11.580;2023-08-30T06:57:36;3.10;;;2.83;;
14021;SDS011;7086;48.116;11.580;2023-08-30T07:00:02;3.00;;;2.80;;
14021;SDS011;7086;48.116;11.580;2023-08-30T07:02:33;3.20;;;3.00;;
14021;SDS011;7086;48.116;11.580;2023-08-30T07:05:01;3.22;;;3.03;;
14021;SDS011;7086;48.116;11.580;2023-08-30T07:07:27;3.08;;;2.88;;
14021;SDS011;7086;48.116;11.580;2023-08-30T07:09:54;2.50;;;2.40;;
14021;SDS011;7086;48.116;11.580;2023-08-30T07:12:22;3.08;;;2.88;;
14021;SDS011;7086;48.116;11.580;2023-08-30T07:14:49;3.28;;;3.05;;
14021;SDS011;7086;48.116;11.580;2023-08-30T07:17:16;3.42;;;2.83;;
14021;SDS011;7086;48.116;11.580;2023-08-30T07:19:43;3.25;;;3.05;;
14021;SDS011;7086;48.116;11.580;2023-08-30T07:22:09;3.08;;;2.78;;
14021;SDS011;7086;48.116;11.580;2023-08-30T07:24:36;3.35;;;3.15;;
14021;SDS011;7086;48.116;11.580;2023-08-30T07:27:03;3.15;;;2.95;;
14021;SDS011;7086;48.116;11.580;2023-08-30T07:29:32;3.47;;;3.20;;
14021;SDS011;7086;48.116;11.580;2023-08-30T07:31:59;3.70;;;3.50;;
14021;SDS011;7086;48.116;11.580;2023-08-30T07:34:26;3.75;;;3.55;;
14021;SDS011;7086;48.116;11.580;2023-08-30T07:36:53;3.20;;;3.00;;
14021;SDS011;7086;48.116;11.580;2023-08-30T07:39:21;2.83;;;2.63;;
14021;SDS011;7086;48.116;11.580;2023-08-30T07:41:48;2.88;;;2.67;;
14021;SDS011;7086;48.116;11.580;2023-08-30T07:44:15;3.55;;;3.35;;
14021;SDS011;7086;48.116;11.580;2023-08-30T07:46:44;3.55;;;3.33;;
14021;SDS011;7086;48.116;11.580;2023-08-30T07:49:10;2.85;;;2.72;;
14021;SDS011;7086;48.116;11.580;2023-08-30T07:51:37;2.97;;;2.80;;
14021;SDS011;7086;48.116;11.580;2023-08-30T07:54:04;3.10;;;2.90;;
14021;SDS011;7086;48.116;11.580;2023-08-30T07:56:31;3.78;;;3.58;;
14021;SDS011;7086;48.116;11.580;2023-08-30T07:58:57;3.17;;;2.97;;
14021;SDS011;7086;48.116;11.580;2023-08-30T08:01:24;4.65;;;4.20;;
14021;SDS011;7086;48.116;11.580;2023-08-30T08:03:52;3.63;;;3.42;;
14021;SDS011;7086;48.116;11.580;2023-08-30T08:06:19;3.85;;;3.65;;
14021;SDS011;7086;48.116;11.580;2023-08-30T08:08:46;3.55;;;3.25;;
14021;SDS011;7086;48.116;11.580;2023-08-30T08:11:13;3.25;;;3.05;;
14021;SDS011;7086;48.116;11.580;2023-08-30T08:13:40;3.28;;;3.08;;
14021;SDS011;7086;48.116;11.580;2023-08-30T08:16:07;3.90;;;3.40;;
14021;SDS011;7086;48.116;11.580;2023-08-30T08:18:34;3.45;;;3.25;;
14021;SDS011;7086;48.116;11.580;2023-08-30T08:21:02;3.30;;;3.10;;
14021;SDS011;7086;48.116;11.580;2023-08-30T08:23:29;2.78;;;2.67;;
14021;SDS011;7086;48.116;11.580;2023-08-30T08:25:59;3.45;;;3.25;;
14021;SDS011;7086;48.116;11.580;2023-08-30T08:28:27;3.72;;;3.53;;
14021;SDS011;7086;48.116;11.580;2023-08-30T08:30:55;3.83;;;3.63;;
14021;SDS011;7086;48.116;11.580;2023-08-30T08:33:21;4.88;;;3.40;;
14021;SDS011;7086;48.116;11.580;2023-08-30T08:35:49;4.18;;;3.88;;
14021;SDS011;7086;48.116;11.580;2023-08-30T08:38:17;3.63;;;3.40;;
14021;SDS011;7086;48.116;11.580;2023-08-30T08:40:44;2.75;;;2.65;;
14021;SDS011;7086;48.116;11.580;2023-08-30T08:43:12;4.60;;;4.20;;
14021;SDS011;7086;48.116;11.580;2023-08-30T08:45:40;3.65;;;3.45;;
14021;SDS011;7086;48.116;11.580;2023-08-30T08:48:08;3.38;;;3.17;;
14021;SDS011;7086;48.116;11.580;2023-08-30T08:50:36;4.13;;;3.92;;
14021;SDS011;7086;48.116;11.580;2023-08-30T08:53:03;3.75;;;2.97;;
14021;SDS011;7086;48.116;11.580;2023-08-30T08:55:33;3.15;;;3.05;;
14021;SDS011;7086;48.116;11.580;2023-08-30T08:58:02;3.45;;;3.15;;
14021;SDS011;7086;48.116;11.580;2023-08-30T09:00:30;3.40;;;3.20;;
14021;SDS011;7086;48.116;11.580;2023-08-30T09:02:57;3.20;;;2.78;;
14021;SDS011;7086;48.116;11.580;2023-08-30T09:05:25;2.67;;;2.58;;
14021;SDS011;7086;48.116;11.580;2023-08-30T09:07:54;2.80;;;2.60;;
14021;SDS011;7086;48.116;11.580;2023-08-30T09:10:21;2.30;;;2.20;;
14021;SDS011;7086;48.116;11.580;2023-08-30T09:12:49;1.95;;;1.88;;
14021;SDS011;7086;48.116;11.580;2023-08-30T09:15:16;2.45;;;2.28;;
14021;SDS011;7086;48.116;11.580;2023-08-30T09:17:43;2.13;;;2.03;;
14021;SDS011;7086;48.116;11.580;2023-08-30T09:20:12;4.28;;;2.55;;
14021;SDS011;7086;48.116;11.580;2023-08-30T09:22:40;2.08;;;1.98;;
14021;SDS011;7086;48.116;11.580;2023-08-30T09:25:09;2.20;;;2.10;;
14021;SDS011;7086;48.116;11.580;2023-08-30T09:27:36;2.30;;;2.17;;
14021;SDS011;7086;48.116;11.580;2023-08-30T09:30:08;1.58;;;1.58;;
14021;SDS011;7086;48.116;11.580;2023-08-30T09:32:39;1.50;;;1.50;;
14021;SDS011;7086;48.116;11.580;2023-08-30T09:35:08;2.00;;;1.90;;
14021;SDS011;7086;48.116;11.580;2023-08-30T09:37:36;1.73;;;1.73;;
14021;SDS011;7086;48.116;11.580;2023-08-30T09:40:03;1.30;;;1.30;;
14021;SDS011;7086;48.116;11.580;2023-08-30T09:42:31;1.90;;;1.80;;
14021;SDS011;7086;48.116;11.580;2023-08-30T09:44:58;1.63;;;1.58;;
14021;SDS011;7086;48.116;11.580;2023-08-30T09:47:26;1.38;;;1.38;;
14021;SDS011;7086;48.116;11.580;2023-08-30T09:49:54;1.40;;;1.30;;
14021;SDS011;7086;48.116;11.580;2023-08-30T09:52:23;1.20;;;1.20;;
14021;SDS011;7086;48.116;11.580;2023-08-30T09:54:52;1.15;;;1.00;;
14021;SDS011;7086;48.116;11.580;2023-08-30T09:57:21;1.20;;;1.20;;
14021;SDS011;7086;48.116;11.580;2023-08-30T09:59:48;2.00;;;1.90;;
14021;SDS011;7086;48.116;11.580;2023-08-30T10:02:18;1.40;;;1.40;;
14021;SDS011;7086;48.116;11.580;2023-08-30T10:05:01;3.03;;;1.27;;
14021;SDS011;7086;48.116;11.580;2023-08-30T10:07:30;1.52;;;1.42;;
14021;SDS011;7086;48.116;11.580;2023-08-30T10:09:57;1.67;;;1.63;;
14021;SDS011;7086;48.116;11.580;2023-08-30T10:12:25;1.17;;;1.17;;
14021;SDS011;7086;48.116;11.580;2023-08-30T10:14:53;0.93;;;0.93;;
14021;SDS011;7086;48.116;11.580;2023-08-30T10:17:20;0.90;;;0.88;;
14021;SDS011;7086;48.116;11.580;2023-08-30T10:19:53;1.02;;;1.02;;
14021;SDS011;7086;48.116;11.580;2023-08-30T10:22:21;0.90;;;0.90;;
14021;SDS011;7086;48.116;11.580;2023-08-30T10:24:51;1.40;;;1.30;;
14021;SDS011;7086;48.116;11.580;2023-08-30T10:27:22;1.50;;;1.25;;
14021;SDS011;7086;48.116;11.580;2023-08-30T10:29:51;1.30;;;1.25;;
14021;SDS011;7086;48.116;11.580;2023-08-30T10:32:19;1.77;;;1.27;;
14021;SDS011;7086;48.116;11.580;2023-08-30T10:34:47;0.75;;;0.75;;
14021;SDS011;7086;48.116;11.580;2023-08-30T10:37:15;0.85;;;0.85;;
14021;SDS011;7086;48.116;11.580;2023-08-30T10:39:49;1.48;;;1.00;;
14021;SDS011;7086;48.116;11.580;2023-08-30T10:42:16;1.35;;;1.27;;
14021;SDS011;7086;48.116;11.580;2023-08-30T10:44:48;1.65;;;0.82;;
14021;SDS011;7086;48.116;11.580;2023-08-30T10:47:18;1.02;;;1.02;;
14021;SDS011;7086;48.116;11.580;2023-08-30T10:49:48;1.08;;;1.02;;
14021;SDS011;7086;48.116;11.580;2023-08-30T10:52:17;0.73;;;0.70;;
14021;SDS011;7086;48.116;11.580;2023-08-30T10:54:46;1.50;;;1.05;;
14021;SDS011;7086;48.116;11.580;2023-08-30T10:57:15;0.90;;;0.90;;
14021;SDS011;7086;48.116;11.580;2023-08-30T11:02:43;0.63;;;0.63;;
14021;SDS011;7086;48.116;11.580;2023-08-30T11:05:14;1.10;;;0.85;;
14021;SDS011;7086;48.116;11.580;2023-08-30T11:07:41;1.00;;;1.00;;
14021;SDS011;7086;48.116;11.580;2023-08-30T11:10:09;0.55;;;0.55;;
14021;SDS011;7086;48.116;11.580;2023-08-30T11:12:39;0.85;;;0.85;;
14021;SDS011;7086;48.116;11.580;2023-08-30T11:15:06;0.88;;;0.88;;
14021;SDS011;7086;48.116;11.580;2023-08-30T11:17:34;1.58;;;1.00;;
14021;SDS011;7086;48.116;11.580;2023-08-30T11:20:08;0.90;;;0.77;;
14021;SDS011;7086;48.116;11.580;2023-08-30T11:22:36;0.73;;;0.73;;
14021;SDS011;7086;48.116;11.580;2023-08-30T11:25:04;1.55;;;0.98;;
14021;SDS011;7086;48.116;11.580;2023-08-30T11:27:31;0.60;;;0.60;;
14021;SDS011;7086;48.116;11.580;2023-08-30T11:30:00;0.80;;;0.80;;
14021;SDS011;7086;48.116;11.580;2023-08-30T11:32:28;0.85;;;0.85;;
14021;SDS011;7086;48.116;11.580;2023-08-30T11:34:58;1.85;;;1.75;;
14021;SDS011;7086;48.116;11.580;2023-08-30T11:37:27;1.45;;;1.15;;
14021;SDS011;7086;48.116;11.580;2023-08-30T11:39:54;0.80;;;0.80;;
14021;SDS011;7086;48.116;11.580;2023-08-30T11:42:21;1.15;;;1.10;;
14021;SDS011;7086;48.116;11.580;2023-08-30T11:44:49;4.32;;;2.15;;
14021;SDS011;7086;48.116;11.580;2023-08-30T11:47:21;3.67;;;3.38;;
14021;SDS011;7086;48.116;11.580;2023-08-30T11:49:49;3.47;;;3.28;;
14021;SDS011;7086;48.116;11.580;2023-08-30T11:52:18;1.58;;;1.55;;
14021;SDS011;7086;48.116;11.580;2023-08-30T11:54:46;1.80;;;1.70;;
14021;SDS011;7086;48.116;11.580;2023-08-30T11:57:13;1.15;;;1.15;;
14021;SDS011;7086;48.116;11.580;2023-08-30T11:59:40;1.10;;;1.10;;
14021;SDS011;7086;48.116;11.580;2023-08-30T12:02:07;0.88;;;0.85;;
14021;SDS011;7086;48.116;11.580;2023-08-30T12:04:41;0.90;;;0.90;;
14021;SDS011;7086;48.116;11.580;2023-08-30T12:07:08;1.25;;;0.82;;
14021;SDS011;7086;48.116;11.580;2023-08-30T12:09:36;1.10;;;1.10;;
14021;SDS011;7086;48.116;11.580;2023-08-30T12:12:05;1.50;;;1.40;;
14021;SDS011;7086;48.116;11.580;2023-08-30T12:14:33;0.73;;;0.73;;
14021;SDS011;7086;48.116;11.580;2023-08-30T12:17:00;0.85;;;0.68;;
14021;SDS011;7086;48.116;11.580;2023-08-30T12:19:28;1.08;;;1.08;;
14021;SDS011;7086;48.116;11.580;2023-08-30T12:22:02;0.75;;;0.73;;
14021;SDS011;7086;48.116;11.580;2023-08-30T12:24:39;0.73;;;0.73;;
14021;SDS011;7086;48.116;11.580;2023-08-30T12:27:07;0.90;;;0.90;;
14021;SDS011;7086;48.116;11.580;2023-08-30T12:29:34;0.75;;;0.65;;
14021;SDS011;7086;48.116;11.580;2023-08-30T12:32:01;0.70;;;0.70;;
14021;SDS011;7086;48.116;11.580;2023-08-30T12:34:28;0.77;;;0.77;;
14021;SDS011;7086;48.116;11.580;2023-08-30T12:36:54;0.93;;;0.93;;
14021;SDS011;7086;48.116;11.580;2023-08-30T12:39:23;0.73;;;0.73;;
14021;SDS011;7086;48.116;11.580;2023-08-30T12:41:51;0.70;;;0.70;;
14021;SDS011;7086;48.116;11.580;2023-08-30T12:44:18;0.68;;;0.68;;
14021;SDS011;7086;48.116;11.580;2023-08-30T12:46:44;1.30;;;1.05;;
14021;SDS011;7086;48.116;11.580;2023-08-30T12:49:11;0.60;;;0.60;;
14021;SDS011;7086;48.116;11.580;2023-08-30T12:51:38;1.05;;;1.00;;
14021;SDS011;7086;48.116;11.580;2023-08-30T12:54:07;0.95;;;0.95;;
14021;SDS011;7086;48.116;11.580;2023-08-30T12:56:34;1.00;;;1.00;;
14021;SDS011;7086;48.116;11.580;2023-08-30T12:59:01;0.80;;;0.80;;
14021;SDS011;7086;48.116;11.580;2023-08-30T13:01:28;0.70;;;0.70;;
14021;SDS011;7086;48.116;11.580;2023-08-30T13:03:55;2.33;;;0.60;;
14021;SDS011;7086;48.116;11.580;2023-08-30T13:06:23;1.10;;;0.93;;
14021;SDS011;7086;48.116;11.580;2023-08-30T13:09:08;1.10;;;1.10;;
14021;SDS011;7086;48.116;11.580;2023-08-30T13:11:35;0.70;;;0.70;;
14021;SDS011;7086;48.116;11.580;2023-08-30T13:14:02;1.00;;;1.00;;
14021;SDS011;7086;48.116;11.580;2023-08-30T13:16:29;1.05;;;1.05;;
14021;SDS011;7086;48.116;11.580;2023-08-30T13:18:56;0.85;;;0.85;;
14021;SDS011;7086;48.116;11.580;2023-08-30T13:21:23;0.80;;;0.80;;
14021;SDS011;7086;48.116;11.580;2023-08-30T13:23:50;1.42;;;1.20;;
14021;SDS011;7086;48.116;11.580;2023-08-30T13:26:18;0.80;;;0.80;;
14021;SDS011;7086;48.116;11.580;2023-08-30T13:28:46;1.13;;;0.60;;
14021;SDS011;7086;48.116;11.580;2023-08-30T13:31:13;0.85;;;0.85;;
14021;SDS011;7086;48.116;11.580;2023-08-30T13:33:40;0.93;;;0.93;;
14021;SDS011;7086;48.116;11.580;2023-08-30T13:36:06;0.70;;;0.70;;
14021;SDS011;7086;48.116;11.580;2023-08-30T13:38:33;0.98;;;0.90;;
14021;SDS011;7086;48.116;11.580;2023-08-30T13:41:01;0.77;;;0.77;;
14021;SDS011;7086;48.116;11.580;2023-08-30T13:43:30;0.70;;;0.70;;
14021;SDS011;7086;48.116;11.580;2023-08-30T13:46:00;0.88;;;0.65;;
14021;SDS011;7086;48.116;11.580;2023-08-30T13:48:41;0.70;;;0.70;;
14021;SDS011;7086;48.116;11.580;2023-08-30T13:51:12;1.95;;;0.80;;
14021;SDS011;7086;48.116;11.580;2023-08-30T13:53:48;0.80;;;0.80;;
14021;SDS011;7086;48.116;11.580;2023-08-30T13:56:16;1.13;;;1.10;;
14021;SDS011;7086;48.116;11.580;2023-08-30T13:58:51;1.00;;;0.88;;
14021;SDS011;7086;48.116;11.580;2023-08-30T14:01:24;1.05;;;1.00;;
14021;SDS011;7086;48.116;11.580;2023-08-30T14:04:02;1.17;;;0.95;;
14021;SDS011;7086;48.116;11.580;2023-08-30T14:06:35;1.50;;;1.40;;
14021;SDS011;7086;48.116;11.580;2023-08-30T14:09:02;1.33;;;1.33;;
14021;SDS011;7086;48.116;11.580;2023-08-30T14:11:33;1.23;;;1.13;;
14021;SDS011;7086;48.116;11.580;2023-08-30T14:14:02;3.28;;;2.00;;
14021;SDS011;7086;48.116;11.580;2023-08-30T14:16:42;2.00;;;1.90;;
14021;SDS011;7086;48.116;11.580;2023-08-30T14:19:09;1.52;;;1.42;;
14021;SDS011;7086;48.116;11.580;2023-08-30T14:21:36;2.17;;;1.85;;
14021;SDS011;7086;48.116;11.580;2023-08-30T14:24:04;2.75;;;2.55;;
14021;SDS011;7086;48.116;11.580;2023-08-30T14:26:33;2.63;;;2.42;;
14021;SDS011;7086;48.116;11.580;2023-08-30T14:32:06;4.03;;;1.40;;
14021;SDS011;7086;48.116;11.580;2023-08-30T14:34:34;1.50;;;1.40;;
14021;SDS011;7086;48.116;11.580;2023-08-30T14:37:04;2.03;;;1.80;;
14021;SDS011;7086;48.116;11.580;2023-08-30T14:39:31;1.73;;;1.63;;
14021;SDS011;7086;48.116;11.580;2023-08-30T14:41:58;2.90;;;1.90;;
14021;SDS011;7086;48.116;11.580;2023-08-30T14:44:25;2.88;;;2.67;;
14021;SDS011;7086;48.116;11.580;2023-08-30T14:46:53;2.08;;;1.98;;
14021;SDS011;7086;48.116;11.580;2023-08-30T14:49:21;2.00;;;1.90;;
14021;SDS011;7086;48.116;11.580;2023-08-30T14:51:48;1.65;;;1.50;;
14021;SDS011;7086;48.116;11.580;2023-08-30T14:54:16;2.50;;;2.30;;
14021;SDS011;7086;48.116;11.580;2023-08-30T14:56:43;1.95;;;1.42;;
14021;SDS011;7086;48.116;11.580;2023-08-30T14:59:10;1.17;;;1.17;;